createdAt,value
2018-08-06T00:00:38.783Z,17.15
2018-08-06T00:03:42.921Z,17.23
2018-08-06T00:06:47.196Z,17.30
2018-08-06T00:09:51.507Z,17.35
2018-08-06T00:12:55.807Z,17.41
2018-08-06T00:16:00.293Z,17.40
2018-08-06T00:19:04.628Z,17.40
2018-08-06T00:22:09.451Z,17.36
2018-08-06T00:25:15.995Z,17.36
2018-08-06T00:28:20.303Z,17.35
2018-08-06T00:31:24.559Z,17.37
2018-08-06T00:34:28.828Z,17.39
2018-08-06T00:37:33.153Z,17.44
2018-08-06T00:40:37.470Z,17.46
2018-08-06T00:43:41.753Z,17.49
2018-08-06T00:46:46.144Z,17.51
2018-08-06T00:49:50.438Z,17.48
2018-08-06T00:52:54.770Z,17.48
2018-08-06T00:55:59.030Z,17.42
2018-08-06T00:59:03.289Z,17.42
2018-08-06T01:02:08.029Z,17.40
2018-08-06T01:05:13.416Z,17.42
2018-08-06T01:08:17.781Z,17.41
2018-08-06T01:11:22.198Z,17.37
2018-08-06T01:14:26.510Z,17.35
2018-08-06T01:17:30.865Z,17.33
2018-08-06T01:20:35.121Z,17.33
2018-08-06T01:23:39.481Z,17.32
2018-08-06T01:26:43.745Z,17.31
2018-08-06T01:29:48.040Z,17.30
2018-08-06T01:32:52.435Z,17.31
2018-08-06T01:35:56.473Z,17.27
2018-08-06T01:39:00.800Z,17.24
2018-08-06T01:42:05.079Z,17.23
2018-08-06T01:45:10.644Z,17.23
2018-08-06T01:48:14.974Z,17.19
2018-08-06T01:51:19.298Z,17.14
2018-08-06T01:54:23.584Z,17.10
2018-08-06T01:57:27.905Z,17.06
2018-08-06T02:00:32.174Z,17.02
2018-08-06T02:03:36.455Z,16.99
2018-08-06T02:06:40.726Z,16.97
2018-08-06T02:09:45.113Z,16.92
2018-08-06T02:12:49.408Z,16.87
2018-08-06T02:15:53.842Z,16.85
2018-08-06T02:18:58.143Z,16.82
2018-08-06T02:22:02.490Z,16.81
2018-08-06T02:25:08.997Z,16.79
2018-08-06T02:28:13.264Z,16.76
2018-08-06T02:31:17.560Z,16.78
2018-08-06T02:34:21.903Z,16.78
2018-08-06T02:37:27.089Z,16.70
2018-08-06T02:40:31.374Z,16.62
2018-08-06T02:43:35.644Z,16.54
2018-08-06T02:46:39.901Z,16.43
2018-08-06T02:49:44.153Z,16.35
2018-08-06T02:52:48.417Z,16.26
2018-08-06T02:55:52.799Z,16.20
2018-08-06T02:58:57.061Z,16.13
2018-08-06T03:02:01.496Z,16.06
2018-08-06T03:05:09.272Z,15.99
2018-08-06T03:08:13.609Z,15.91
2018-08-06T03:11:17.911Z,15.85
2018-08-06T03:14:22.168Z,15.76
2018-08-06T03:17:26.444Z,15.70
2018-08-06T03:20:30.693Z,15.62
2018-08-06T03:23:34.965Z,15.58
2018-08-06T03:26:39.292Z,15.57
2018-08-06T03:29:43.650Z,15.55
2018-08-06T03:32:48.926Z,15.49
2018-08-06T03:35:53.408Z,15.38
2018-08-06T03:38:57.557Z,15.32
2018-08-06T03:42:01.803Z,15.29
2018-08-06T03:45:08.324Z,15.23
2018-08-06T03:48:12.627Z,15.19
2018-08-06T03:51:16.964Z,15.14
2018-08-06T03:54:21.296Z,15.10
2018-08-06T03:57:25.573Z,15.07
2018-08-06T04:00:29.904Z,15.04
2018-08-06T04:03:34.230Z,14.98
2018-08-06T04:06:38.544Z,14.93
2018-08-06T04:09:42.818Z,14.93
2018-08-06T04:12:47.295Z,14.93
2018-08-06T04:15:51.425Z,14.91
2018-08-06T04:18:55.853Z,14.91
2018-08-06T04:22:00.170Z,14.91
2018-08-06T04:25:04.623Z,14.93
2018-08-06T04:28:09.008Z,14.91
2018-08-06T04:31:13.261Z,14.92
2018-08-06T04:34:17.617Z,14.94
2018-08-06T04:37:21.942Z,14.98
2018-08-06T04:40:26.223Z,15.02
2018-08-06T04:43:30.603Z,15.04
2018-08-06T04:46:34.888Z,15.07
2018-08-06T04:49:39.261Z,15.09
2018-08-06T04:52:44.526Z,15.15
2018-08-06T04:55:48.947Z,15.18
2018-08-06T04:58:53.525Z,15.25
2018-08-06T05:01:57.827Z,15.29
2018-08-06T05:05:02.460Z,15.35
2018-08-06T05:08:06.945Z,15.43
2018-08-06T05:11:11.220Z,15.54
2018-08-06T05:14:15.504Z,15.61
2018-08-06T05:17:19.828Z,15.73
2018-08-06T05:20:24.169Z,15.82
2018-08-06T05:23:40.430Z,15.93
2018-08-06T05:26:44.683Z,16.03
2018-08-06T05:29:49.009Z,16.15
2018-08-06T05:32:53.282Z,16.35
2018-08-06T05:35:57.572Z,16.43
2018-08-06T05:39:01.862Z,16.53
2018-08-06T05:42:06.285Z,16.59
2018-08-06T05:45:11.387Z,16.70
2018-08-06T05:48:15.671Z,16.86
2018-08-06T05:51:19.959Z,17.01
2018-08-06T05:54:24.439Z,17.14
2018-08-06T05:57:28.667Z,17.27
2018-08-06T06:00:32.947Z,17.36
2018-08-06T06:03:37.230Z,17.43
2018-08-06T06:06:41.567Z,17.55
2018-08-06T06:09:45.884Z,17.68
2018-08-06T06:12:50.203Z,17.80
2018-08-06T06:15:54.532Z,17.90
2018-08-06T06:18:58.667Z,18.03
2018-08-06T06:22:02.983Z,18.17
2018-08-06T06:25:10.620Z,18.34
2018-08-06T06:28:14.883Z,18.45
2018-08-06T06:31:20.933Z,18.55
2018-08-06T06:34:25.261Z,18.68
2018-08-06T06:37:29.587Z,18.82
2018-08-06T06:40:33.882Z,18.93
2018-08-06T06:43:38.336Z,19.05
2018-08-06T06:46:42.655Z,19.31
2018-08-06T06:49:46.956Z,19.61
2018-08-06T06:52:51.278Z,19.86
2018-08-06T06:55:55.554Z,19.87
2018-08-06T06:58:59.908Z,19.77
2018-08-06T07:02:04.255Z,19.76
2018-08-06T07:05:08.937Z,19.92
2018-08-06T07:08:13.302Z,20.04
2018-08-06T07:11:17.578Z,20.07
2018-08-06T07:14:22.040Z,20.19
2018-08-06T07:17:26.345Z,20.38
2018-08-06T07:20:30.664Z,20.55
2018-08-06T07:23:34.987Z,20.67
2018-08-06T07:26:39.313Z,20.72
2018-08-06T07:29:43.599Z,20.80
2018-08-06T07:32:47.933Z,20.89
2018-08-06T07:35:52.262Z,20.62
2018-08-06T07:38:56.523Z,20.57
2018-08-06T07:42:00.886Z,20.86
2018-08-06T07:45:08.209Z,21.02
2018-08-06T07:48:12.509Z,21.25
2018-08-06T07:51:16.797Z,21.16
2018-08-06T07:54:21.184Z,21.13
2018-08-06T07:57:25.586Z,21.00
2018-08-06T08:00:29.836Z,20.94
2018-08-06T08:03:34.371Z,21.15
2018-08-06T08:06:38.757Z,21.22
2018-08-06T08:09:43.266Z,21.34
2018-08-06T08:12:47.866Z,21.40
2018-08-06T08:15:52.125Z,21.61
2018-08-06T08:18:56.531Z,21.67
2018-08-06T08:22:00.844Z,21.66
2018-08-06T08:25:07.053Z,21.66
2018-08-06T08:28:11.415Z,21.70
2018-08-06T08:31:15.872Z,21.76
2018-08-06T08:34:20.147Z,21.91
2018-08-06T08:37:24.491Z,22.07
2018-08-06T08:40:28.920Z,22.18
2018-08-06T08:43:33.335Z,22.34
2018-08-06T08:46:37.645Z,22.40
2018-08-06T08:49:41.908Z,22.53
2018-08-06T08:52:46.296Z,22.79
2018-08-06T08:55:50.597Z,22.97
2018-08-06T08:58:54.977Z,22.93
2018-08-06T09:01:59.231Z,23.02
2018-08-06T09:05:03.569Z,22.96
2018-08-06T09:08:07.642Z,23.03
2018-08-06T09:11:11.965Z,23.22
2018-08-06T09:14:16.161Z,23.40
2018-08-06T09:17:20.532Z,23.60
2018-08-06T09:20:26.289Z,23.76
2018-08-06T09:23:30.604Z,23.83
2018-08-06T09:26:35.014Z,23.81
2018-08-06T09:29:39.333Z,23.79
2018-08-06T09:32:45.850Z,23.69
2018-08-06T09:35:50.150Z,23.62
2018-08-06T09:38:54.372Z,23.66
2018-08-06T09:41:58.646Z,23.80
2018-08-06T09:45:03.091Z,23.68
2018-08-06T09:48:07.628Z,23.77
2018-08-06T09:51:11.966Z,23.84
2018-08-06T09:54:16.437Z,24.14
2018-08-06T09:57:20.756Z,24.22
2018-08-06T10:00:30.746Z,24.10
2018-08-06T10:03:35.148Z,24.05
2018-08-06T10:06:39.870Z,24.26
2018-08-06T10:09:44.223Z,24.33
2018-08-06T10:12:48.857Z,24.46
2018-08-06T10:15:53.196Z,24.68
2018-08-06T10:18:57.600Z,24.90
2018-08-06T10:22:01.917Z,24.94
2018-08-06T10:25:07.640Z,25.00
2018-08-06T10:28:11.944Z,25.04
2018-08-06T10:31:16.423Z,25.14
2018-08-06T10:34:20.871Z,25.26
2018-08-06T10:37:25.216Z,25.52
2018-08-06T10:40:29.554Z,25.69
2018-08-06T10:43:33.955Z,25.83
2018-08-06T10:46:38.245Z,25.62
2018-08-06T10:49:42.568Z,25.55
2018-08-06T10:52:46.890Z,25.71
2018-08-06T10:55:51.269Z,25.71
2018-08-06T10:58:55.616Z,25.80
2018-08-06T11:02:00.054Z,25.70
2018-08-06T11:05:05.797Z,25.71
2018-08-06T11:08:10.169Z,25.69
2018-08-06T11:11:14.489Z,25.77
2018-08-06T11:14:18.866Z,25.87
2018-08-06T11:17:23.197Z,25.81
2018-08-06T11:20:27.522Z,25.91
2018-08-06T11:23:31.797Z,25.96
2018-08-06T11:26:36.440Z,26.12
2018-08-06T11:29:40.774Z,26.20
2018-08-06T11:32:45.640Z,26.36
2018-08-06T11:35:50.057Z,26.36
2018-08-06T11:38:54.595Z,26.27
2018-08-06T11:41:58.903Z,26.33
2018-08-06T11:45:03.158Z,26.52
2018-08-06T11:48:07.510Z,26.71
2018-08-06T11:51:12.100Z,26.72
2018-08-06T11:54:16.532Z,26.73
2018-08-06T11:57:21.045Z,26.82
2018-08-06T12:00:26.914Z,26.59
2018-08-06T12:03:31.399Z,26.59
2018-08-06T12:06:35.807Z,26.77
2018-08-06T12:09:39.916Z,26.85
2018-08-06T12:12:45.186Z,26.90
2018-08-06T12:15:49.582Z,26.92
2018-08-06T12:18:54.181Z,26.83
2018-08-06T12:21:58.544Z,26.71
2018-08-06T12:25:03.068Z,26.79
2018-08-06T12:28:07.389Z,26.64
2018-08-06T12:31:11.872Z,26.76
2018-08-06T12:34:16.430Z,26.87
2018-08-06T12:37:20.762Z,27.01
2018-08-06T12:40:25.483Z,27.26
2018-08-06T12:43:29.776Z,27.50
2018-08-06T12:46:34.153Z,27.64
2018-08-06T12:49:38.514Z,27.54
2018-08-06T12:52:44.127Z,27.54
2018-08-06T12:55:48.605Z,27.23
2018-08-06T12:58:52.966Z,27.22
2018-08-06T13:01:57.360Z,27.17
2018-08-06T13:05:01.666Z,27.20
2018-08-06T13:08:06.084Z,27.21
2018-08-06T13:11:10.448Z,27.19
2018-08-06T13:14:14.737Z,27.14
2018-08-06T13:17:19.153Z,27.13
2018-08-06T13:20:23.286Z,27.28
2018-08-06T13:23:27.794Z,27.41
2018-08-06T13:26:32.125Z,27.43
2018-08-06T13:29:37.181Z,27.41
2018-08-06T13:32:42.452Z,27.34
2018-08-06T13:35:47.025Z,27.45
2018-08-06T13:38:51.529Z,27.57
2018-08-06T13:41:55.883Z,27.62
2018-08-06T13:45:00.258Z,27.51
2018-08-06T13:48:04.724Z,27.35
2018-08-06T13:51:09.130Z,27.33
2018-08-06T13:54:13.477Z,27.39
2018-08-06T13:57:17.878Z,27.58
2018-08-06T14:00:22.164Z,27.59
2018-08-06T14:03:26.499Z,27.46
2018-08-06T14:06:30.783Z,27.47
2018-08-06T14:09:35.159Z,27.50
2018-08-06T14:12:39.679Z,27.59
2018-08-06T14:15:44.063Z,27.28
2018-08-06T14:18:48.500Z,27.49
2018-08-06T14:21:52.770Z,27.50
2018-08-06T14:24:57.176Z,27.70
2018-08-06T14:28:01.661Z,27.80
2018-08-06T14:31:05.782Z,27.92
2018-08-06T14:34:10.137Z,28.06
2018-08-06T14:37:14.504Z,28.02
2018-08-06T14:40:19.703Z,28.06
2018-08-06T14:43:24.227Z,27.99
2018-08-06T14:46:28.510Z,28.06
2018-08-06T14:49:32.805Z,27.92
2018-08-06T14:52:37.158Z,27.87
2018-08-06T14:55:41.460Z,27.84
2018-08-06T14:58:45.810Z,27.94
2018-08-06T15:01:50.105Z,28.02
2018-08-06T15:04:54.438Z,28.00
2018-08-06T15:07:58.748Z,28.13
2018-08-06T15:11:03.150Z,28.29
2018-08-06T15:14:07.531Z,28.22
2018-08-06T15:17:11.965Z,28.36
2018-08-06T15:20:17.499Z,28.35
2018-08-06T15:23:21.886Z,28.50
2018-08-06T15:26:26.315Z,28.80
2018-08-06T15:29:30.625Z,29.10
2018-08-06T15:32:34.941Z,29.47
2018-08-06T15:35:39.244Z,29.25
2018-08-06T15:38:43.584Z,29.19
2018-08-06T15:41:47.699Z,29.04
2018-08-06T15:44:52.024Z,29.06
2018-08-06T15:47:56.342Z,28.78
2018-08-06T15:51:00.626Z,28.51
2018-08-06T15:54:04.940Z,28.02
2018-08-06T15:57:09.304Z,27.69
2018-08-06T16:00:16.378Z,27.55
2018-08-06T16:03:20.693Z,27.42
2018-08-06T16:06:24.957Z,27.14
2018-08-06T16:09:29.311Z,27.06
2018-08-06T16:12:33.627Z,26.85
2018-08-06T16:15:37.973Z,26.73
2018-08-06T16:18:42.264Z,26.51
2018-08-06T16:21:46.615Z,26.37
2018-08-06T16:24:50.972Z,26.18
2018-08-06T16:27:55.359Z,26.07
2018-08-06T16:30:59.699Z,26.11
2018-08-06T16:34:03.960Z,26.15
2018-08-06T16:37:08.439Z,26.17
2018-08-06T16:40:13.234Z,26.31
2018-08-06T16:43:17.498Z,26.22
2018-08-06T16:46:21.792Z,26.11
2018-08-06T16:49:26.719Z,26.09
2018-08-06T16:52:31.823Z,25.85
2018-08-06T16:55:36.917Z,25.78
2018-08-06T16:58:42.114Z,25.70
2018-08-06T17:01:47.407Z,25.66
2018-08-06T17:04:53.090Z,25.74
2018-08-06T17:07:57.554Z,25.80
2018-08-06T17:11:01.907Z,25.83
2018-08-06T17:14:07.130Z,25.76
2018-08-06T17:17:11.372Z,25.66
2018-08-06T17:20:18.009Z,25.61
2018-08-06T17:23:22.334Z,25.57
2018-08-06T17:26:26.974Z,25.47
2018-08-06T17:29:31.453Z,25.43
2018-08-06T17:32:36.657Z,25.42
2018-08-06T17:35:41.012Z,25.29
2018-08-06T17:38:45.375Z,25.15
2018-08-06T17:41:49.782Z,25.07
2018-08-06T17:44:54.108Z,25.02
2018-08-06T17:47:58.496Z,24.97
2018-08-06T17:51:02.810Z,24.91
2018-08-06T17:54:06.982Z,24.83
2018-08-06T17:57:11.364Z,24.78
2018-08-06T18:00:16.140Z,24.66
2018-08-06T18:03:20.401Z,24.60
2018-08-06T18:06:24.710Z,24.53
2018-08-06T18:09:29.111Z,24.44
2018-08-06T18:12:33.411Z,24.33
2018-08-06T18:15:37.840Z,24.21
2018-08-06T18:18:42.197Z,24.06
2018-08-06T18:21:46.512Z,23.92
2018-08-06T18:24:50.832Z,23.77
2018-08-06T18:27:55.113Z,23.64
2018-08-06T18:30:59.497Z,23.48
2018-08-06T18:34:03.787Z,23.32
2018-08-06T18:37:08.107Z,23.14
2018-08-06T18:40:13.284Z,23.00
2018-08-06T18:43:17.711Z,22.86
2018-08-06T18:46:22.010Z,22.75
2018-08-06T18:49:26.315Z,22.63
2018-08-06T18:52:30.673Z,22.47
2018-08-06T18:55:34.935Z,22.32
2018-08-06T18:58:39.113Z,22.17
2018-08-06T19:01:43.549Z,22.08
2018-08-06T19:04:47.924Z,21.98
2018-08-06T19:07:52.521Z,21.85
2018-08-06T19:10:57.044Z,21.74
2018-08-06T19:14:06.607Z,21.64
2018-08-06T19:17:11.057Z,21.60
2018-08-06T19:20:16.073Z,21.53
2018-08-06T19:23:20.413Z,21.40
2018-08-06T19:26:24.744Z,21.24
2018-08-06T19:29:29.152Z,21.04
2018-08-06T19:32:33.453Z,20.89
2018-08-06T19:35:37.765Z,20.77
2018-08-06T19:38:42.072Z,20.69
2018-08-06T19:41:46.580Z,20.58
2018-08-06T19:44:52.428Z,20.54
2018-08-06T19:47:57.745Z,20.51
2018-08-06T19:51:02.261Z,20.46
2018-08-06T19:54:06.857Z,20.38
2018-08-06T19:57:11.196Z,20.34
2018-08-06T20:00:15.875Z,20.30
2018-08-06T20:03:20.269Z,20.27
2018-08-06T20:06:24.618Z,20.24
2018-08-06T20:09:29.071Z,20.14
2018-08-06T20:12:33.506Z,20.05
2018-08-06T20:15:37.821Z,20.00
2018-08-06T20:18:42.017Z,19.96
2018-08-06T20:21:46.377Z,19.89
2018-08-06T20:24:50.681Z,19.84
2018-08-06T20:27:55.001Z,19.82
2018-08-06T20:30:59.331Z,19.75
2018-08-06T20:34:03.614Z,19.73
2018-08-06T20:37:07.960Z,19.69
2018-08-06T20:40:12.800Z,19.66
2018-08-06T20:43:17.252Z,19.63
2018-08-06T20:46:21.656Z,19.61
2018-08-06T20:49:26.098Z,19.57
2018-08-06T20:52:30.492Z,19.52
2018-08-06T20:55:34.888Z,19.46
2018-08-06T20:58:39.329Z,19.46
2018-08-06T21:01:43.766Z,19.42
2018-08-06T21:04:48.202Z,19.37
2018-08-06T21:07:52.653Z,19.31
2018-08-06T21:10:57.175Z,19.29
2018-08-06T21:14:01.534Z,19.23
2018-08-06T21:17:06.194Z,19.17
2018-08-06T21:20:13.679Z,19.13
2018-08-06T21:23:18.043Z,19.11
2018-08-06T21:26:22.325Z,19.06
2018-08-06T21:29:26.606Z,19.04
2018-08-06T21:32:30.891Z,19.01
2018-08-06T21:35:35.261Z,18.93
2018-08-06T21:38:39.661Z,18.85
2018-08-06T21:41:43.977Z,18.79
2018-08-06T21:44:48.349Z,18.73
2018-08-06T21:47:52.687Z,18.68
2018-08-06T21:50:57.042Z,18.62
2018-08-06T21:54:01.573Z,18.56
2018-08-06T21:57:06.071Z,18.50
2018-08-06T22:00:42.309Z,18.46
2018-08-06T22:03:46.698Z,18.43
2018-08-06T22:06:51.024Z,18.42
2018-08-06T22:09:55.493Z,18.42
2018-08-06T22:12:59.797Z,18.41
2018-08-06T22:16:04.377Z,18.39
2018-08-06T22:19:10.482Z,18.46
2018-08-06T22:22:14.871Z,18.52
2018-08-06T22:25:19.179Z,18.47
2018-08-06T22:28:23.472Z,18.39
2018-08-06T22:31:27.817Z,18.30
2018-08-06T22:34:32.182Z,18.23
2018-08-06T22:37:36.570Z,18.17
2018-08-06T22:40:40.914Z,18.13
2018-08-06T22:43:45.188Z,18.09
2018-08-06T22:46:49.533Z,18.04
2018-08-06T22:49:53.787Z,18.00
2018-08-06T22:52:58.065Z,17.94
2018-08-06T22:56:06.097Z,17.91
2018-08-06T22:59:10.389Z,17.90
2018-08-06T23:02:15.659Z,17.87
2018-08-06T23:05:20.050Z,17.82
2018-08-06T23:08:24.377Z,17.81
2018-08-06T23:11:28.680Z,17.76
2018-08-06T23:14:32.942Z,17.71
2018-08-06T23:17:37.313Z,17.67
2018-08-06T23:20:41.623Z,17.70
2018-08-06T23:23:45.978Z,17.73
2018-08-06T23:26:50.240Z,17.76
2018-08-06T23:29:54.512Z,17.79
2018-08-06T23:32:58.890Z,17.71
2018-08-06T23:36:03.258Z,17.65
2018-08-06T23:39:10.404Z,17.54
2018-08-06T23:42:15.656Z,17.48
2018-08-06T23:45:20.000Z,17.42
2018-08-06T23:48:24.305Z,17.38
2018-08-06T23:51:28.604Z,17.43
2018-08-06T23:54:32.921Z,17.42
2018-08-06T23:57:37.263Z,17.39
